createdAt,value
2022-12-28T00:01:14.629Z,5.40
2022-12-28T00:03:41.933Z,5.65
2022-12-28T00:06:09.712Z,5.30
2022-12-28T00:08:36.985Z,5.97
2022-12-28T00:11:07.664Z,4.83
2022-12-28T00:13:38.722Z,4.95
2022-12-28T00:16:09.599Z,6.60
2022-12-28T00:18:37.242Z,5.50
2022-12-28T00:21:05.252Z,5.45
2022-12-28T00:23:32.268Z,5.80
2022-12-28T00:26:06.425Z,4.88
2022-12-28T00:28:33.268Z,5.63
2022-12-28T00:31:01.577Z,5.45
2022-12-28T00:33:28.407Z,5.45
2022-12-28T00:35:55.965Z,5.40
2022-12-28T00:38:22.757Z,5.43
2022-12-28T00:40:49.627Z,5.55
2022-12-28T00:43:16.525Z,5.78
2022-12-28T00:45:44.965Z,5.78
2022-12-28T00:48:13.706Z,5.13
2022-12-28T00:50:40.807Z,4.60
2022-12-28T00:53:07.678Z,4.90
2022-12-28T00:55:34.961Z,5.47
2022-12-28T00:58:02.163Z,4.57
2022-12-28T01:00:29.639Z,4.47
2022-12-28T01:02:56.642Z,4.28
2022-12-28T01:05:25.438Z,4.88
2022-12-28T01:07:52.255Z,4.85
2022-12-28T01:10:19.120Z,4.20
2022-12-28T01:12:45.781Z,4.23
2022-12-28T01:15:13.218Z,4.35
2022-12-28T01:17:40.218Z,3.75
2022-12-28T01:20:08.308Z,4.50
2022-12-28T01:22:36.348Z,3.95
2022-12-28T01:25:03.343Z,4.07
2022-12-28T01:27:30.042Z,4.05
2022-12-28T01:29:56.737Z,4.20
2022-12-28T01:32:23.448Z,4.03
2022-12-28T01:34:50.099Z,3.97
2022-12-28T01:37:16.894Z,4.23
2022-12-28T01:39:44.990Z,4.00
2022-12-28T01:42:16.586Z,3.95
2022-12-28T01:44:46.068Z,3.30
2022-12-28T01:47:15.823Z,3.53
2022-12-28T01:49:48.289Z,3.37
2022-12-28T01:52:20.799Z,3.33
2022-12-28T01:54:52.178Z,3.42
2022-12-28T01:57:21.906Z,3.38
2022-12-28T01:59:53.568Z,3.25
2022-12-28T02:02:21.849Z,3.33
2022-12-28T02:04:49.314Z,2.80
2022-12-28T02:07:21.859Z,2.90
2022-12-28T02:10:42.475Z,2.47
2022-12-28T02:12:37.962Z,2.35
2022-12-28T02:15:05.347Z,2.53
2022-12-28T02:17:32.124Z,2.63
2022-12-28T02:20:00.611Z,2.58
2022-12-28T02:22:50.066Z,2.65
2022-12-28T02:25:45.493Z,2.38
2022-12-28T02:28:26.564Z,2.80
2022-12-28T02:31:01.961Z,2.28
2022-12-28T02:33:37.264Z,2.85
2022-12-28T02:36:16.215Z,2.55
2022-12-28T02:38:48.930Z,2.50
2022-12-28T02:41:19.224Z,2.70
2022-12-28T02:43:46.665Z,2.63
2022-12-28T02:46:20.362Z,2.72
2022-12-28T02:48:47.271Z,2.53
2022-12-28T02:51:40.063Z,2.72
2022-12-28T02:54:21.542Z,3.03
2022-12-28T02:56:55.712Z,3.03
2022-12-28T02:59:38.984Z,2.85
2022-12-28T03:02:28.699Z,3.30
2022-12-28T03:05:08.863Z,3.13
2022-12-28T03:07:42.442Z,2.63
2022-12-28T03:10:15.828Z,3.05
2022-12-28T03:12:49.513Z,3.70
2022-12-28T03:15:19.589Z,3.28
2022-12-28T03:17:47.851Z,3.25
2022-12-28T03:20:20.971Z,3.33
2022-12-28T03:22:49.115Z,2.90
2022-12-28T03:25:21.328Z,4.15
2022-12-28T03:27:49.662Z,3.65
2022-12-28T03:30:19.964Z,3.25
2022-12-28T03:32:48.672Z,3.37
2022-12-28T03:35:16.281Z,3.60
2022-12-28T03:37:50.118Z,4.07
2022-12-28T03:40:24.826Z,4.00
2022-12-28T03:42:54.977Z,3.45
2022-12-28T03:45:44.943Z,3.47
2022-12-28T03:48:15.915Z,3.50
2022-12-28T03:50:45.575Z,3.53
2022-12-28T03:53:12.495Z,4.10
2022-12-28T03:55:39.515Z,3.83
2022-12-28T03:58:06.786Z,3.40
2022-12-28T04:00:33.902Z,4.00
2022-12-28T04:03:00.738Z,4.60
2022-12-28T04:05:28.877Z,4.63
2022-12-28T04:07:55.547Z,3.92
2022-12-28T04:10:22.279Z,3.80
2022-12-28T04:12:48.977Z,3.90
2022-12-28T04:15:15.770Z,4.00
2022-12-28T04:17:42.488Z,3.78
2022-12-28T04:20:09.822Z,3.88
2022-12-28T04:22:37.861Z,4.20
2022-12-28T04:25:05.201Z,3.63
2022-12-28T04:27:31.874Z,4.38
2022-12-28T04:29:58.566Z,3.78
2022-12-28T04:32:25.264Z,4.47
2022-12-28T04:34:51.947Z,3.73
2022-12-28T04:37:18.708Z,4.10
2022-12-28T04:39:55.664Z,3.95
2022-12-28T04:42:24.081Z,3.83
2022-12-28T04:44:50.817Z,4.50
2022-12-28T04:47:17.503Z,3.77
2022-12-28T04:49:44.219Z,4.13
2022-12-28T04:52:10.886Z,4.55
2022-12-28T04:54:37.568Z,4.30
2022-12-28T04:57:05.901Z,4.35
2022-12-28T04:59:32.571Z,4.03
2022-12-28T05:01:59.353Z,4.13
2022-12-28T05:04:26.212Z,4.43
2022-12-28T05:06:52.913Z,4.35
2022-12-28T05:09:19.604Z,4.00
2022-12-28T05:11:47.184Z,4.30
2022-12-28T05:14:15.292Z,4.72
2022-12-28T05:16:42.291Z,4.57
2022-12-28T05:19:09.091Z,4.75
2022-12-28T05:21:36.305Z,4.47
2022-12-28T05:24:03.154Z,4.60
2022-12-28T05:26:30.047Z,4.40
2022-12-28T05:28:57.501Z,4.53
2022-12-28T05:31:26.079Z,4.50
2022-12-28T05:33:54.456Z,4.35
2022-12-28T05:36:23.346Z,4.70
2022-12-28T05:38:50.773Z,5.03
2022-12-28T05:41:20.426Z,4.75
2022-12-28T05:43:47.200Z,4.57
2022-12-28T05:46:16.618Z,4.45
2022-12-28T05:48:44.822Z,5.00
2022-12-28T05:51:13.154Z,4.57
2022-12-28T05:53:40.221Z,5.10
2022-12-28T05:56:13.865Z,4.40
2022-12-28T05:58:41.721Z,4.82
2022-12-28T06:01:10.089Z,4.47
2022-12-28T06:03:37.660Z,4.90
2022-12-28T06:06:10.731Z,4.82
2022-12-28T06:08:38.242Z,4.75
2022-12-28T06:11:07.028Z,4.80
2022-12-28T06:13:34.396Z,4.90
2022-12-28T06:16:05.875Z,4.78
2022-12-28T06:18:33.096Z,4.57
2022-12-28T06:21:02.801Z,4.95
2022-12-28T06:23:31.194Z,5.18
2022-12-28T06:25:59.238Z,4.37
2022-12-28T06:28:26.007Z,4.53
2022-12-28T06:30:53.102Z,5.07
2022-12-28T06:33:19.888Z,4.85
2022-12-28T06:35:46.605Z,4.28
2022-12-28T06:38:13.244Z,5.47
2022-12-28T06:41:11.712Z,4.90
2022-12-28T06:43:31.391Z,4.30
2022-12-28T06:45:58.145Z,4.90
2022-12-28T06:48:24.894Z,4.65
2022-12-28T06:50:55.565Z,4.43
2022-12-28T06:53:22.501Z,4.50
2022-12-28T06:55:54.600Z,4.60
2022-12-28T06:58:21.387Z,4.60
2022-12-28T07:00:48.285Z,4.78
2022-12-28T07:03:15.076Z,4.90
2022-12-28T07:05:41.777Z,4.25
2022-12-28T07:08:12.579Z,5.45
2022-12-28T07:10:41.236Z,4.40
2022-12-28T07:13:09.326Z,4.50
2022-12-28T07:15:36.435Z,4.17
2022-12-28T07:18:03.190Z,4.35
2022-12-28T07:20:31.254Z,4.88
2022-12-28T07:22:59.655Z,4.43
2022-12-28T07:25:26.340Z,4.60
2022-12-28T07:27:52.986Z,4.47
2022-12-28T07:30:21.086Z,4.30
2022-12-28T07:32:47.820Z,4.35
2022-12-28T07:35:14.665Z,4.63
2022-12-28T07:37:41.470Z,5.13
2022-12-28T07:40:09.549Z,4.50
2022-12-28T07:42:36.250Z,4.63
2022-12-28T07:45:03.058Z,4.00
2022-12-28T07:47:31.091Z,3.92
2022-12-28T07:49:57.708Z,4.00
2022-12-28T07:52:24.368Z,4.00
2022-12-28T07:54:51.052Z,3.88
2022-12-28T07:57:17.729Z,4.43
2022-12-28T07:59:44.416Z,4.50
2022-12-28T08:02:11.182Z,4.38
2022-12-28T08:04:39.278Z,4.17
2022-12-28T08:07:05.977Z,4.03
2022-12-28T08:09:32.707Z,3.63
2022-12-28T08:11:59.391Z,3.72
2022-12-28T08:14:26.081Z,3.60
2022-12-28T08:16:52.770Z,4.20
2022-12-28T08:19:19.449Z,4.22
2022-12-28T08:21:47.554Z,4.15
2022-12-28T08:24:16.737Z,4.72
2022-12-28T08:26:43.734Z,4.15
2022-12-28T08:29:12.320Z,4.10
2022-12-28T08:31:40.973Z,5.40
2022-12-28T08:34:10.586Z,4.93
2022-12-28T08:36:37.260Z,4.70
2022-12-28T08:39:05.871Z,4.20
2022-12-28T08:41:32.774Z,4.40
2022-12-28T08:44:00.003Z,6.15
2022-12-28T08:46:29.277Z,4.95
2022-12-28T08:48:57.341Z,3.80
2022-12-28T08:51:25.967Z,3.50
2022-12-28T08:53:53.218Z,4.47
2022-12-28T08:56:22.876Z,4.55
2022-12-28T08:58:50.568Z,5.18
2022-12-28T09:01:19.756Z,4.30
2022-12-28T09:03:48.557Z,4.07
2022-12-28T09:06:17.190Z,4.03
2022-12-28T09:08:56.769Z,3.92
2022-12-28T09:11:32.606Z,4.07
2022-12-28T09:13:59.297Z,3.25
2022-12-28T09:16:27.853Z,4.00
2022-12-28T09:18:56.376Z,3.83
2022-12-28T09:21:27.654Z,4.28
2022-12-28T09:23:54.592Z,3.75
2022-12-28T09:26:22.966Z,3.60
2022-12-28T09:28:52.267Z,3.45
2022-12-28T09:31:20.145Z,3.40
2022-12-28T09:34:24.761Z,3.95
2022-12-28T09:36:35.416Z,3.20
2022-12-28T09:39:04.456Z,3.22
2022-12-28T09:41:33.095Z,3.50
2022-12-28T09:44:16.005Z,2.77
2022-12-28T09:46:49.083Z,2.92
2022-12-28T09:49:18.578Z,3.90
2022-12-28T09:51:51.276Z,3.30
2022-12-28T09:54:18.025Z,3.42
2022-12-28T09:56:46.039Z,3.43
2022-12-28T09:59:18.255Z,3.60
2022-12-28T10:01:48.359Z,3.28
2022-12-28T10:04:15.218Z,3.00
2022-12-28T10:06:41.936Z,3.33
2022-12-28T10:09:14.824Z,3.00
2022-12-28T10:11:43.280Z,3.17
2022-12-28T10:14:18.515Z,3.55
2022-12-28T10:16:48.640Z,3.22
2022-12-28T10:19:17.791Z,2.97
2022-12-28T10:21:46.187Z,3.07
2022-12-28T10:27:02.208Z,3.03
2022-12-28T10:29:33.179Z,2.90
2022-12-28T10:32:01.789Z,3.30
2022-12-28T10:34:33.538Z,3.20
2022-12-28T10:37:05.633Z,3.40
2022-12-28T10:39:33.222Z,3.20
2022-12-28T10:42:00.775Z,2.90
2022-12-28T10:44:40.386Z,3.00
2022-12-28T10:47:29.681Z,2.60
2022-12-28T10:50:35.230Z,2.80
2022-12-28T10:52:43.359Z,3.05
2022-12-28T10:55:28.731Z,3.55
2022-12-28T10:58:27.907Z,3.08
2022-12-28T11:00:52.568Z,4.00
2022-12-28T11:03:24.558Z,3.30
2022-12-28T11:06:07.857Z,3.72
2022-12-28T11:08:34.521Z,2.88
2022-12-28T11:11:01.216Z,3.10
2022-12-28T11:13:28.016Z,2.70
2022-12-28T11:15:56.157Z,3.47
2022-12-28T11:18:22.961Z,3.20
2022-12-28T11:20:51.700Z,2.95
2022-12-28T11:23:20.089Z,2.60
2022-12-28T11:25:46.966Z,2.63
2022-12-28T11:28:15.936Z,2.33
2022-12-28T11:30:42.842Z,2.55
2022-12-28T11:33:28.212Z,1.92
2022-12-28T11:35:59.571Z,2.30
2022-12-28T11:38:40.369Z,2.40
2022-12-28T11:41:09.832Z,1.80
2022-12-28T11:43:49.234Z,2.38
2022-12-28T11:46:41.922Z,2.10
2022-12-28T11:49:27.255Z,1.98
2022-12-28T11:52:42.936Z,1.80
2022-12-28T11:55:42.867Z,2.47
2022-12-28T11:58:51.941Z,1.63
2022-12-28T12:01:52.486Z,1.65
2022-12-28T12:04:32.851Z,2.22
2022-12-28T12:07:31.771Z,1.80
2022-12-28T12:10:29.158Z,1.75
2022-12-28T12:12:56.288Z,1.73
2022-12-28T12:15:27.864Z,1.98
2022-12-28T12:18:01.651Z,2.47
2022-12-28T12:20:46.438Z,2.07
2022-12-28T12:23:28.308Z,2.00
2022-12-28T12:25:58.001Z,1.92
2022-12-28T12:28:34.181Z,2.25
2022-12-28T12:31:02.993Z,1.70
2022-12-28T12:33:34.398Z,2.00
2022-12-28T12:36:12.972Z,2.10
2022-12-28T12:39:04.361Z,2.80
2022-12-28T12:41:40.391Z,4.80
2022-12-28T12:44:23.867Z,3.47
2022-12-28T12:47:11.780Z,4.43
2022-12-28T12:49:59.965Z,4.75
2022-12-28T12:52:42.400Z,3.53
2022-12-28T12:55:20.023Z,2.00
2022-12-28T12:57:55.297Z,2.28
2022-12-28T13:00:23.161Z,2.40
2022-12-28T13:03:19.195Z,1.83
2022-12-28T13:05:52.211Z,2.30
2022-12-28T13:08:25.305Z,2.60
2022-12-28T13:10:53.622Z,2.50
2022-12-28T13:13:28.182Z,2.07
2022-12-28T13:15:59.388Z,1.77
2022-12-28T13:21:19.013Z,1.92
2022-12-28T13:23:47.390Z,2.03
2022-12-28T13:26:15.996Z,1.83
2022-12-28T13:28:50.328Z,2.25
2022-12-28T13:31:18.992Z,1.83
2022-12-28T13:33:54.708Z,2.35
2022-12-28T13:36:21.613Z,2.40
2022-12-28T13:39:04.450Z,2.60
2022-12-28T13:41:33.789Z,2.13
2022-12-28T13:44:26.769Z,1.95
2022-12-28T13:46:59.987Z,2.05
2022-12-28T13:49:28.346Z,2.50
2022-12-28T13:51:55.358Z,2.17
2022-12-28T13:54:24.121Z,1.80
2022-12-28T13:56:52.494Z,2.13
2022-12-28T13:59:21.008Z,2.42
2022-12-28T14:01:49.472Z,2.30
2022-12-28T14:07:11.807Z,2.22
2022-12-28T14:09:40.587Z,2.00
2022-12-28T14:12:07.787Z,2.10
2022-12-28T14:14:34.850Z,2.00
2022-12-28T14:17:02.687Z,1.93
2022-12-28T14:19:29.696Z,2.10
2022-12-28T14:21:56.439Z,2.03
2022-12-28T14:24:23.113Z,1.88
2022-12-28T14:26:54.640Z,2.15
2022-12-28T14:29:27.133Z,1.93
2022-12-28T14:31:57.070Z,1.70
2022-12-28T14:34:27.372Z,2.20
2022-12-28T14:36:55.612Z,1.90
2022-12-28T14:39:33.090Z,2.65
2022-12-28T14:42:02.681Z,2.33
2022-12-28T14:44:32.236Z,2.53
2022-12-28T14:47:00.238Z,2.10
2022-12-28T14:49:36.864Z,2.20
2022-12-28T14:52:34.889Z,2.50
2022-12-28T14:55:18.923Z,2.67
2022-12-28T14:57:49.457Z,2.55
2022-12-28T15:00:24.909Z,2.30
2022-12-28T15:02:52.255Z,2.47
2022-12-28T15:05:36.461Z,2.30
2022-12-28T15:08:03.589Z,2.00
2022-12-28T15:10:31.803Z,2.35
2022-12-28T15:12:59.834Z,2.05
2022-12-28T15:15:26.541Z,2.00
2022-12-28T15:17:53.243Z,1.80
2022-12-28T15:20:19.935Z,2.10
2022-12-28T15:22:48.035Z,2.20
2022-12-28T15:25:14.931Z,2.50
2022-12-28T15:27:41.638Z,2.50
2022-12-28T15:30:14.616Z,2.70
2022-12-28T15:32:45.559Z,2.57
2022-12-28T15:35:12.477Z,2.20
2022-12-28T15:37:39.463Z,2.03
2022-12-28T15:40:07.705Z,2.20
2022-12-28T15:42:40.091Z,3.22
2022-12-28T15:45:09.987Z,3.23
2022-12-28T15:47:36.798Z,4.00
2022-12-28T15:50:04.690Z,4.13
2022-12-28T15:52:32.134Z,3.47
2022-12-28T15:54:59.155Z,3.75
2022-12-28T15:57:26.431Z,3.00
2022-12-28T15:59:53.677Z,3.58
2022-12-28T16:02:22.213Z,3.65
2022-12-28T16:04:49.181Z,3.58
2022-12-28T16:07:16.486Z,3.55
2022-12-28T16:09:43.299Z,2.80
2022-12-28T16:12:10.050Z,3.10
2022-12-28T16:14:36.747Z,2.95
2022-12-28T16:17:03.533Z,2.95
2022-12-28T16:19:31.641Z,3.10
2022-12-28T16:21:58.413Z,3.50
2022-12-28T16:24:25.251Z,4.30
2022-12-28T16:26:52.183Z,3.83
2022-12-28T16:29:19.213Z,2.90
2022-12-28T16:31:46.184Z,3.22
2022-12-28T16:34:14.597Z,2.60
2022-12-28T16:36:44.763Z,2.83
2022-12-28T16:39:13.673Z,2.70
2022-12-28T16:41:40.999Z,2.90
2022-12-28T16:44:12.430Z,3.08
2022-12-28T16:46:39.254Z,3.40
2022-12-28T16:49:06.065Z,3.00
2022-12-28T16:51:32.853Z,2.80
2022-12-28T16:54:00.994Z,3.47
2022-12-28T16:56:27.747Z,2.67
2022-12-28T16:58:56.389Z,3.00
2022-12-28T17:01:23.829Z,2.40
2022-12-28T17:03:50.703Z,2.55
2022-12-28T17:06:18.057Z,3.33
2022-12-28T17:08:45.332Z,2.97
2022-12-28T17:11:13.428Z,3.07
2022-12-28T17:13:40.245Z,3.03
2022-12-28T17:16:07.824Z,2.70
2022-12-28T17:18:35.054Z,2.95
2022-12-28T17:21:06.772Z,3.10
2022-12-28T17:23:34.169Z,2.90
2022-12-28T17:26:00.946Z,3.53
2022-12-28T17:28:29.068Z,3.75
2022-12-28T17:31:04.266Z,3.28
2022-12-28T17:33:35.591Z,4.03
2022-12-28T17:36:06.279Z,3.30
2022-12-28T17:38:32.981Z,2.80
2022-12-28T17:40:59.823Z,2.30
2022-12-28T17:43:26.508Z,2.20
2022-12-28T17:45:54.623Z,2.17
2022-12-28T17:48:21.409Z,2.00
2022-12-28T17:50:49.149Z,3.35
2022-12-28T17:53:15.815Z,1.95
2022-12-28T17:55:42.537Z,2.00
2022-12-28T17:58:09.216Z,1.90
2022-12-28T18:00:35.997Z,1.63
2022-12-28T18:03:04.373Z,1.55
2022-12-28T18:05:31.548Z,1.63
2022-12-28T18:07:58.317Z,1.55
2022-12-28T18:10:25.004Z,1.60
2022-12-28T18:12:51.734Z,1.80
2022-12-28T18:15:18.435Z,1.50
2022-12-28T18:17:45.149Z,1.77
2022-12-28T18:20:13.219Z,1.67
2022-12-28T18:22:39.898Z,1.90
2022-12-28T18:25:07.070Z,1.80
2022-12-28T18:27:35.059Z,1.95
2022-12-28T18:30:01.871Z,1.75
2022-12-28T18:32:28.652Z,1.80
2022-12-28T18:34:55.423Z,1.60
2022-12-28T18:37:23.606Z,1.70
2022-12-28T18:39:50.276Z,2.00
2022-12-28T18:42:16.996Z,1.92
2022-12-28T18:44:43.801Z,1.98
2022-12-28T18:47:10.591Z,2.00
2022-12-28T18:49:40.179Z,1.93
2022-12-28T18:52:09.307Z,1.90
2022-12-28T18:54:37.402Z,2.00
2022-12-28T18:57:04.397Z,1.60
2022-12-28T18:59:31.134Z,1.80
2022-12-28T19:02:07.421Z,1.83
2022-12-28T19:04:35.849Z,1.65
2022-12-28T19:07:02.740Z,1.90
2022-12-28T19:09:29.412Z,1.63
2022-12-28T19:11:57.472Z,1.60
2022-12-28T19:14:24.308Z,1.40
2022-12-28T19:16:51.028Z,1.40
2022-12-28T19:19:17.748Z,1.60
2022-12-28T19:21:44.927Z,1.88
2022-12-28T19:24:14.082Z,1.77
2022-12-28T19:26:41.059Z,1.80
2022-12-28T19:29:10.960Z,1.70
2022-12-28T19:31:37.857Z,1.80
2022-12-28T19:34:04.625Z,1.85
2022-12-28T19:36:31.534Z,1.88
2022-12-28T19:38:58.309Z,2.00
2022-12-28T19:41:25.434Z,1.95
2022-12-28T19:43:52.434Z,2.28
2022-12-28T19:46:22.760Z,2.13
2022-12-28T19:48:52.759Z,2.30
2022-12-28T19:51:19.517Z,2.33
2022-12-28T19:53:46.253Z,2.20
2022-12-28T19:56:14.747Z,2.90
2022-12-28T19:58:41.938Z,2.20
2022-12-28T20:01:10.640Z,2.13
2022-12-28T20:03:39.242Z,2.73
2022-12-28T20:06:07.749Z,1.90
2022-12-28T20:08:34.868Z,2.60
2022-12-28T20:11:01.754Z,3.10
2022-12-28T20:13:28.477Z,2.08
2022-12-28T20:15:55.196Z,2.57
2022-12-28T20:18:22.021Z,2.60
2022-12-28T20:21:18.592Z,1.92
2022-12-28T20:23:37.571Z,1.90
2022-12-28T20:26:07.064Z,2.30
2022-12-28T20:28:33.812Z,2.00
2022-12-28T20:31:01.361Z,2.03
2022-12-28T20:33:28.502Z,2.00
2022-12-28T20:36:01.626Z,2.28
2022-12-28T20:38:28.614Z,1.67
2022-12-28T20:41:02.547Z,1.90
2022-12-28T20:43:29.608Z,1.70
2022-12-28T20:45:56.269Z,1.55
2022-12-28T20:48:23.090Z,2.13
2022-12-28T20:50:55.621Z,1.80
2022-12-28T20:53:23.700Z,1.40
2022-12-28T20:55:50.490Z,1.60
2022-12-28T20:58:17.287Z,1.83
2022-12-28T21:00:44.051Z,1.75
2022-12-28T21:03:10.822Z,2.20
2022-12-28T21:05:37.514Z,1.67
2022-12-28T21:08:04.441Z,1.70
2022-12-28T21:10:32.565Z,1.90
2022-12-28T21:12:59.282Z,1.77
2022-12-28T21:15:26.178Z,2.28
2022-12-28T21:17:52.879Z,1.60
2022-12-28T21:20:19.655Z,1.90
2022-12-28T21:22:46.542Z,2.40
2022-12-28T21:25:13.225Z,1.92
2022-12-28T21:27:41.316Z,2.03
2022-12-28T21:30:09.208Z,1.70
2022-12-28T21:32:35.881Z,2.05
2022-12-28T21:35:02.549Z,2.08
2022-12-28T21:37:29.248Z,1.83
2022-12-28T21:39:55.939Z,1.90
2022-12-28T21:42:22.609Z,1.90
2022-12-28T21:44:50.768Z,1.60
2022-12-28T21:47:17.521Z,2.45
2022-12-28T21:49:44.290Z,2.55
2022-12-28T21:52:10.970Z,1.98
2022-12-28T21:54:37.674Z,1.80
2022-12-28T21:57:05.509Z,1.70
2022-12-28T21:59:32.611Z,2.00
2022-12-28T22:02:00.929Z,2.03
2022-12-28T22:04:28.381Z,1.98
2022-12-28T22:06:55.093Z,1.87
2022-12-28T22:09:21.868Z,2.25
2022-12-28T22:11:48.592Z,2.30
2022-12-28T22:14:15.457Z,1.85
2022-12-28T22:16:42.178Z,2.47
2022-12-28T22:19:10.204Z,2.90
2022-12-28T22:21:36.959Z,3.60
2022-12-28T22:24:03.984Z,4.38
2022-12-28T22:26:30.724Z,2.85
2022-12-28T22:28:57.468Z,3.40
2022-12-28T22:31:24.247Z,3.77
2022-12-28T22:33:53.244Z,3.45
2022-12-28T22:36:21.450Z,3.10
2022-12-28T22:38:48.715Z,2.92
2022-12-28T22:41:15.430Z,2.00
2022-12-28T22:43:44.883Z,1.90
2022-12-28T22:46:12.068Z,1.65
2022-12-28T22:48:39.049Z,1.70
2022-12-28T22:51:08.302Z,1.60
2022-12-28T22:53:37.038Z,2.00
2022-12-28T22:56:06.151Z,1.40
2022-12-28T22:58:33.357Z,1.83
2022-12-28T23:01:05.848Z,1.75
2022-12-28T23:03:32.923Z,2.33
2022-12-28T23:05:59.766Z,1.90
2022-12-28T23:08:26.623Z,1.80
2022-12-28T23:10:57.217Z,1.90
2022-12-28T23:13:24.583Z,2.08
2022-12-28T23:15:59.294Z,1.52
2022-12-28T23:18:26.278Z,1.50
2022-12-28T23:20:53.367Z,1.10
2022-12-28T23:23:20.178Z,1.50
2022-12-28T23:25:46.919Z,1.60
2022-12-28T23:28:16.394Z,1.40
2022-12-28T23:30:46.196Z,1.52
2022-12-28T23:33:13.365Z,1.67
2022-12-28T23:35:40.153Z,1.42
2022-12-28T23:38:07.272Z,1.80
2022-12-28T23:40:34.052Z,1.50
2022-12-28T23:43:00.846Z,1.50
2022-12-28T23:45:29.090Z,1.60
2022-12-28T23:47:55.791Z,1.38
2022-12-28T23:50:22.570Z,1.52
2022-12-28T23:52:49.457Z,1.35
2022-12-28T23:55:16.480Z,1.50
2022-12-28T23:57:43.185Z,1.20
